createdAt,value
2022-11-29T00:00:02.946Z,1.98
2022-11-29T00:02:53.029Z,1.94
2022-11-29T00:05:40.079Z,2.04
2022-11-29T00:08:26.996Z,2.06
2022-11-29T00:11:36.667Z,2.10
2022-11-29T00:14:24.854Z,2.13
2022-11-29T00:17:11.749Z,2.12
2022-11-29T00:19:58.682Z,2.13
2022-11-29T00:22:45.618Z,2.10
2022-11-29T00:25:32.572Z,2.07
2022-11-29T00:28:19.452Z,2.08
2022-11-29T00:31:27.553Z,2.16
2022-11-29T00:34:14.478Z,2.12
2022-11-29T00:37:01.394Z,2.08
2022-11-29T00:39:48.293Z,2.06
2022-11-29T00:42:35.241Z,2.06
2022-11-29T00:45:22.148Z,2.04
2022-11-29T00:48:09.045Z,2.03
2022-11-29T00:50:56.002Z,2.04
2022-11-29T00:53:42.887Z,2.13
2022-11-29T00:56:30.011Z,2.15
2022-11-29T00:59:16.938Z,2.14
2022-11-29T01:02:03.911Z,2.10
2022-11-29T01:04:50.939Z,2.20
2022-11-29T01:07:37.894Z,2.15
2022-11-29T01:10:25.642Z,2.15
2022-11-29T01:13:12.567Z,2.15
2022-11-29T01:15:59.531Z,2.12
2022-11-29T01:18:46.468Z,2.14
2022-11-29T01:21:33.600Z,2.14
2022-11-29T01:24:22.252Z,2.13
2022-11-29T01:27:09.976Z,2.19
2022-11-29T01:29:56.896Z,2.18
2022-11-29T01:32:43.821Z,2.20
2022-11-29T01:35:30.715Z,2.21
2022-11-29T01:38:18.377Z,2.25
2022-11-29T01:41:08.689Z,2.31
2022-11-29T01:44:45.004Z,2.27
2022-11-29T01:47:33.023Z,2.28
2022-11-29T01:50:20.531Z,2.29
2022-11-29T01:53:08.440Z,2.36
2022-11-29T01:56:01.183Z,2.37
2022-11-29T01:58:48.200Z,2.36
2022-11-29T02:01:36.751Z,2.31
2022-11-29T02:04:23.931Z,2.30
2022-11-29T02:07:11.167Z,2.32
2022-11-29T02:09:58.382Z,2.32
2022-11-29T02:13:22.640Z,2.29
2022-11-29T02:16:55.038Z,2.20
2022-11-29T02:20:25.869Z,2.39
2022-11-29T02:23:49.857Z,2.38
2022-11-29T02:27:22.787Z,2.28
2022-11-29T02:30:19.772Z,2.27
2022-11-29T02:51:22.678Z,2.25
2022-11-29T02:54:27.068Z,2.33
2022-11-29T02:57:41.971Z,2.30
2022-11-29T03:00:29.719Z,2.41
2022-11-29T03:03:35.610Z,2.30
2022-11-29T03:06:50.489Z,2.30
2022-11-29T03:10:18.935Z,2.37
2022-11-29T03:13:16.770Z,2.44
2022-11-29T03:16:41.323Z,2.52
2022-11-29T03:19:54.504Z,2.41
2022-11-29T03:23:11.902Z,2.48
2022-11-29T03:26:26.035Z,2.43
2022-11-29T03:29:45.589Z,2.44
2022-11-29T03:32:50.904Z,2.51
2022-11-29T03:35:43.626Z,2.41
2022-11-29T03:38:43.756Z,2.43
2022-11-29T03:41:55.131Z,2.42
2022-11-29T03:45:03.284Z,2.32
2022-11-29T03:48:07.828Z,2.36
2022-11-29T03:51:07.522Z,2.37
2022-11-29T03:54:01.232Z,2.36
2022-11-29T03:56:48.756Z,2.26
2022-11-29T04:00:02.667Z,2.23
2022-11-29T04:03:32.780Z,2.33
2022-11-29T04:06:55.111Z,2.32
2022-11-29T04:10:02.225Z,2.27
2022-11-29T04:13:24.349Z,2.31
2022-11-29T04:16:40.728Z,2.20
2022-11-29T04:20:09.529Z,2.23
2022-11-29T04:23:35.824Z,2.14
2022-11-29T04:27:01.457Z,2.21
2022-11-29T04:30:19.855Z,2.19
2022-11-29T04:33:37.749Z,2.29
2022-11-29T04:36:45.861Z,2.14
2022-11-29T04:40:09.716Z,2.10
2022-11-29T04:43:35.314Z,2.17
2022-11-29T04:50:09.972Z,2.31
2022-11-29T04:53:39.002Z,2.24
2022-11-29T05:00:11.791Z,2.11
2022-11-29T05:03:02.223Z,2.20
2022-11-29T05:06:02.856Z,2.25
2022-11-29T05:09:22.274Z,2.15
2022-11-29T05:12:31.985Z,2.27
2022-11-29T05:15:50.558Z,2.28
2022-11-29T05:19:03.144Z,2.11
2022-11-29T05:22:06.543Z,2.06
2022-11-29T05:25:42.411Z,2.21
2022-11-29T05:29:07.188Z,2.15
2022-11-29T05:32:35.465Z,2.20
2022-11-29T05:35:50.355Z,2.16
2022-11-29T05:39:01.416Z,2.09
2022-11-29T05:42:16.407Z,2.15
2022-11-29T05:45:09.094Z,2.11
2022-11-29T05:48:14.138Z,2.17
2022-11-29T05:51:42.216Z,2.29
2022-11-29T05:54:49.708Z,2.24
2022-11-29T05:58:10.976Z,2.21
2022-11-29T06:01:32.890Z,2.17
2022-11-29T06:04:48.544Z,2.35
2022-11-29T06:08:02.921Z,2.16
2022-11-29T06:11:01.429Z,2.14
2022-11-29T06:14:26.517Z,2.17
2022-11-29T06:18:23.060Z,2.13
2022-11-29T06:21:40.789Z,2.05
2022-11-29T06:25:10.649Z,2.01
2022-11-29T06:28:40.507Z,2.05
2022-11-29T06:31:39.621Z,2.02
2022-11-29T06:34:59.247Z,2.04
2022-11-29T06:37:50.714Z,2.04
2022-11-29T06:40:37.856Z,2.04
2022-11-29T06:43:28.735Z,2.00
2022-11-29T06:46:40.328Z,2.07
2022-11-29T06:49:31.073Z,2.03
2022-11-29T06:52:47.192Z,1.93
2022-11-29T06:55:46.513Z,1.90
2022-11-29T06:58:47.908Z,1.98
2022-11-29T07:01:56.085Z,2.04
2022-11-29T07:05:18.173Z,2.09
2022-11-29T07:08:11.389Z,2.19
2022-11-29T07:10:59.633Z,2.16
2022-11-29T07:13:47.054Z,2.13
2022-11-29T07:16:57.039Z,2.21
2022-11-29T07:20:19.280Z,2.22
2022-11-29T07:23:21.819Z,2.17
2022-11-29T07:26:44.973Z,2.25
2022-11-29T07:30:09.212Z,2.30
2022-11-29T07:33:16.008Z,2.28
2022-11-29T07:36:49.127Z,2.34
2022-11-29T07:40:13.932Z,2.36
2022-11-29T07:43:42.401Z,2.40
2022-11-29T07:46:29.429Z,2.52
2022-11-29T07:49:16.485Z,2.37
2022-11-29T07:52:03.531Z,2.47
2022-11-29T07:54:50.492Z,2.49
2022-11-29T07:57:37.385Z,2.45
2022-11-29T08:00:24.466Z,2.46
2022-11-29T08:03:11.726Z,2.51
2022-11-29T08:05:58.684Z,2.54
2022-11-29T08:08:45.640Z,2.58
2022-11-29T08:11:32.728Z,2.60
2022-11-29T08:14:19.628Z,2.70
2022-11-29T08:17:06.608Z,2.71
2022-11-29T08:19:53.519Z,2.56
2022-11-29T08:22:40.531Z,2.61
2022-11-29T08:25:28.144Z,2.67
2022-11-29T08:28:15.052Z,2.71
2022-11-29T08:31:07.723Z,2.76
2022-11-29T08:33:54.709Z,2.82
2022-11-29T08:36:41.639Z,2.94
2022-11-29T08:39:28.626Z,2.91
2022-11-29T08:42:15.536Z,2.91
2022-11-29T08:45:02.476Z,2.96
2022-11-29T08:47:49.372Z,2.95
2022-11-29T08:50:36.281Z,2.90
2022-11-29T08:53:42.307Z,2.90
2022-11-29T08:57:16.645Z,2.88
2022-11-29T08:59:36.216Z,2.94
2022-11-29T09:02:23.242Z,2.97
2022-11-29T09:05:11.089Z,3.04
2022-11-29T09:07:58.552Z,3.06
2022-11-29T09:10:45.809Z,3.03
2022-11-29T09:13:32.715Z,3.08
2022-11-29T09:16:22.495Z,2.99
2022-11-29T09:19:10.248Z,3.08
2022-11-29T09:21:57.172Z,3.26
2022-11-29T09:24:44.583Z,3.27
2022-11-29T09:27:31.619Z,3.32
2022-11-29T09:30:23.461Z,3.36
2022-11-29T09:33:10.720Z,3.44
2022-11-29T09:35:58.656Z,3.36
2022-11-29T09:38:45.682Z,3.53
2022-11-29T09:41:48.512Z,3.49
2022-11-29T09:44:55.803Z,3.54
2022-11-29T09:48:01.589Z,3.59
2022-11-29T09:51:04.185Z,3.68
2022-11-29T09:54:31.503Z,3.58
2022-11-29T09:57:19.717Z,3.71
2022-11-29T10:00:15.750Z,3.78
2022-11-29T10:03:13.881Z,3.83
2022-11-29T10:06:08.893Z,3.95
2022-11-29T10:09:02.474Z,3.95
2022-11-29T10:12:19.991Z,4.00
2022-11-29T10:15:14.072Z,4.03
2022-11-29T10:18:38.498Z,4.19
2022-11-29T10:21:30.626Z,4.05
2022-11-29T10:24:22.959Z,3.99
2022-11-29T10:27:19.721Z,3.98
2022-11-29T10:30:14.086Z,4.01
2022-11-29T10:33:01.116Z,4.12
2022-11-29T10:35:50.541Z,4.05
2022-11-29T10:38:37.480Z,3.92
2022-11-29T10:41:25.445Z,3.95
2022-11-29T10:44:14.425Z,4.03
2022-11-29T10:47:10.458Z,4.09
2022-11-29T10:49:58.525Z,4.09
2022-11-29T10:52:45.434Z,4.11
2022-11-29T10:55:40.401Z,3.97
2022-11-29T10:58:29.770Z,3.96
2022-11-29T11:01:17.057Z,4.03
2022-11-29T11:04:07.430Z,4.16
2022-11-29T11:07:01.433Z,4.19
2022-11-29T11:09:50.913Z,4.17
2022-11-29T11:12:37.880Z,4.13
2022-11-29T11:15:30.348Z,4.07
2022-11-29T11:18:22.790Z,4.12
2022-11-29T11:21:12.909Z,4.12
2022-11-29T11:24:02.954Z,4.14
2022-11-29T11:26:49.935Z,4.13
2022-11-29T11:29:41.016Z,4.20
2022-11-29T11:32:28.428Z,4.27
2022-11-29T11:35:24.097Z,4.33
2022-11-29T11:38:19.778Z,4.28
2022-11-29T11:41:17.662Z,4.32
2022-11-29T11:44:49.162Z,4.30
2022-11-29T11:47:57.538Z,4.31
2022-11-29T11:50:51.139Z,4.25
2022-11-29T11:53:38.643Z,4.32
2022-11-29T11:56:35.590Z,4.26
2022-11-29T11:59:26.349Z,4.29
2022-11-29T12:02:48.659Z,4.25
2022-11-29T12:05:35.692Z,4.31
2022-11-29T12:08:24.079Z,4.31
2022-11-29T12:11:15.340Z,4.30
2022-11-29T12:14:05.129Z,4.21
2022-11-29T12:17:01.152Z,4.08
2022-11-29T12:20:34.482Z,4.25
2022-11-29T12:23:58.297Z,4.11
2022-11-29T12:27:00.900Z,4.12
2022-11-29T12:29:47.916Z,4.07
2022-11-29T12:33:03.267Z,4.09
2022-11-29T12:36:00.449Z,4.14
2022-11-29T12:39:33.539Z,4.16
2022-11-29T12:42:40.819Z,4.09
2022-11-29T12:45:41.334Z,4.09
2022-11-29T12:49:17.711Z,4.07
2022-11-29T12:52:25.691Z,4.14
2022-11-29T12:55:39.510Z,4.10
2022-11-29T12:59:11.217Z,4.08
2022-11-29T13:02:27.151Z,4.16
2022-11-29T13:05:29.853Z,4.30
2022-11-29T13:09:12.296Z,4.13
2022-11-29T13:12:13.040Z,4.02
2022-11-29T13:15:44.951Z,4.04
2022-11-29T13:47:58.416Z,3.89
2022-11-29T13:50:46.718Z,3.95
2022-11-29T13:53:48.668Z,4.02
2022-11-29T13:56:46.020Z,4.06
2022-11-29T13:59:36.074Z,4.03
2022-11-29T14:02:31.236Z,3.97
2022-11-29T14:05:28.969Z,3.94
2022-11-29T14:09:19.359Z,3.94
2022-11-29T14:12:39.777Z,3.84
2022-11-29T14:15:31.154Z,3.74
2022-11-29T14:18:47.888Z,3.81
2022-11-29T14:22:17.085Z,3.88
2022-11-29T14:25:49.927Z,3.82
2022-11-29T14:28:39.110Z,3.83
2022-11-29T14:31:53.301Z,3.83
2022-11-29T14:34:45.930Z,3.83
2022-11-29T14:37:51.220Z,3.85
2022-11-29T14:41:13.925Z,3.77
2022-11-29T14:44:34.088Z,3.86
2022-11-29T14:47:31.850Z,3.77
2022-11-29T14:50:36.942Z,3.78
2022-11-29T14:53:35.680Z,3.67
2022-11-29T14:56:38.899Z,3.58
2022-11-29T14:59:44.292Z,3.54
2022-11-29T15:02:45.543Z,3.58
2022-11-29T15:06:00.517Z,3.50
2022-11-29T15:09:06.188Z,3.46
2022-11-29T15:11:58.833Z,3.46
2022-11-29T15:15:35.402Z,3.49
2022-11-29T15:18:37.352Z,3.40
2022-11-29T15:21:48.815Z,3.35
2022-11-29T15:25:00.253Z,3.35
2022-11-29T15:27:55.233Z,3.47
2022-11-29T15:30:42.779Z,3.42
2022-11-29T15:33:29.882Z,3.45
2022-11-29T15:36:23.304Z,3.42
2022-11-29T15:39:28.782Z,3.41
2022-11-29T15:42:15.941Z,3.36
2022-11-29T15:45:39.393Z,3.34
2022-11-29T15:48:31.935Z,3.39
2022-11-29T15:51:31.375Z,3.41
2022-11-29T15:54:42.004Z,3.45
2022-11-29T15:57:49.773Z,3.41
2022-11-29T16:00:36.991Z,3.35
2022-11-29T16:03:26.873Z,3.36
2022-11-29T16:06:52.103Z,3.33
2022-11-29T16:09:42.933Z,3.29
2022-11-29T16:12:29.993Z,3.29
2022-11-29T16:15:30.140Z,3.19
2022-11-29T16:18:23.467Z,3.22
2022-11-29T16:21:43.511Z,3.14
2022-11-29T16:24:33.897Z,3.12
2022-11-29T16:27:21.863Z,3.09
2022-11-29T16:30:21.589Z,3.09
2022-11-29T16:33:21.286Z,3.06
2022-11-29T16:36:36.042Z,3.03
2022-11-29T16:39:24.298Z,2.91
2022-11-29T16:42:25.907Z,2.92
2022-11-29T16:45:36.358Z,2.96
2022-11-29T16:48:38.194Z,2.89
2022-11-29T16:51:32.365Z,2.87
2022-11-29T16:54:27.823Z,2.78
2022-11-29T16:57:14.868Z,2.69
2022-11-29T17:00:02.017Z,2.77
2022-11-29T17:02:49.201Z,2.81
2022-11-29T17:05:40.252Z,2.92
2022-11-29T17:08:30.656Z,2.83
2022-11-29T17:11:17.719Z,2.87
2022-11-29T17:14:04.582Z,2.85
2022-11-29T17:16:52.100Z,2.89
2022-11-29T17:19:39.133Z,2.82
2022-11-29T17:22:26.061Z,2.75
2022-11-29T17:25:13.056Z,2.76
2022-11-29T17:28:00.023Z,2.78
2022-11-29T17:30:46.925Z,2.73
2022-11-29T17:33:33.802Z,2.74
2022-11-29T17:36:21.710Z,2.75
2022-11-29T17:39:08.856Z,2.75
2022-11-29T17:41:55.900Z,2.75
2022-11-29T17:44:42.894Z,2.68
2022-11-29T17:47:29.794Z,2.71
2022-11-29T17:50:17.040Z,2.81
2022-11-29T17:53:03.960Z,2.75
2022-11-29T17:55:50.869Z,2.72
2022-11-29T17:58:39.082Z,2.77
2022-11-29T18:01:29.500Z,2.68
2022-11-29T18:04:16.718Z,2.61
2022-11-29T18:07:03.616Z,2.68
2022-11-29T18:09:50.940Z,2.72
2022-11-29T18:12:37.869Z,2.72
2022-11-29T18:15:24.876Z,2.65
2022-11-29T18:18:11.752Z,2.70
2022-11-29T18:21:03.442Z,2.56
2022-11-29T18:23:50.753Z,2.55
2022-11-29T18:26:38.747Z,2.55
2022-11-29T18:29:25.664Z,2.52
2022-11-29T18:32:12.605Z,2.53
2022-11-29T18:35:01.597Z,2.57
2022-11-29T18:38:14.155Z,2.54
2022-11-29T18:40:55.332Z,2.49
2022-11-29T18:43:42.498Z,2.43
2022-11-29T18:46:33.041Z,2.37
2022-11-29T18:49:20.047Z,2.37
2022-11-29T18:52:06.992Z,2.50
2022-11-29T18:54:54.034Z,2.42
2022-11-29T18:57:41.201Z,2.45
2022-11-29T19:00:28.206Z,2.47
2022-11-29T19:03:15.124Z,2.54
2022-11-29T19:06:04.257Z,2.57
2022-11-29T19:08:51.903Z,2.52
2022-11-29T19:11:39.233Z,2.52
2022-11-29T19:14:26.175Z,2.61
2022-11-29T19:17:13.080Z,2.61
2022-11-29T19:20:00.218Z,2.59
2022-11-29T19:22:47.797Z,2.53
2022-11-29T19:25:34.989Z,2.59
2022-11-29T19:28:21.879Z,2.67
2022-11-29T19:31:10.182Z,2.64
2022-11-29T19:33:58.188Z,2.63
2022-11-29T19:36:45.549Z,2.61
2022-11-29T19:39:33.931Z,2.62
2022-11-29T19:42:22.238Z,2.73
2022-11-29T19:45:18.696Z,2.71
2022-11-29T19:48:05.855Z,2.73
2022-11-29T19:50:52.897Z,2.67
2022-11-29T19:53:40.289Z,2.62
2022-11-29T19:56:28.926Z,2.65
2022-11-29T19:59:15.901Z,2.62
2022-11-29T20:02:02.992Z,2.49
2022-11-29T20:04:50.398Z,2.51
2022-11-29T20:07:37.345Z,2.46
2022-11-29T20:10:24.746Z,2.50
2022-11-29T20:13:11.641Z,2.54
2022-11-29T20:16:06.853Z,2.55
2022-11-29T20:18:56.716Z,2.56
2022-11-29T20:21:47.647Z,2.52
2022-11-29T20:24:40.060Z,2.51
2022-11-29T20:27:30.903Z,2.44
2022-11-29T20:30:17.963Z,2.40
2022-11-29T20:33:05.102Z,2.35
2022-11-29T20:36:05.415Z,2.16
2022-11-29T20:39:11.605Z,2.06
2022-11-29T20:42:23.645Z,2.14
2022-11-29T20:45:12.647Z,2.13
2022-11-29T20:48:22.396Z,2.08
2022-11-29T20:51:10.854Z,2.14
2022-11-29T20:53:58.905Z,2.07
2022-11-29T20:56:45.806Z,2.05
2022-11-29T20:59:32.718Z,2.09
2022-11-29T21:02:20.657Z,2.12
2022-11-29T21:05:08.070Z,2.24
2022-11-29T21:07:55.013Z,2.09
2022-11-29T21:10:42.207Z,1.97
2022-11-29T21:13:29.488Z,2.00
2022-11-29T21:16:16.906Z,2.08
2022-11-29T21:19:04.354Z,2.11
2022-11-29T21:22:08.340Z,2.03
2022-11-29T21:25:36.584Z,2.09
2022-11-29T21:28:30.306Z,1.98
2022-11-29T21:31:18.875Z,2.04
2022-11-29T21:34:05.821Z,2.00
2022-11-29T21:36:58.226Z,2.03
2022-11-29T21:39:45.397Z,1.96
2022-11-29T21:42:32.309Z,2.04
2022-11-29T21:45:19.460Z,2.07
2022-11-29T21:48:29.060Z,2.07
2022-11-29T21:51:16.003Z,2.09
2022-11-29T21:54:03.113Z,2.17
2022-11-29T21:56:50.210Z,2.04
2022-11-29T21:59:37.210Z,2.11
2022-11-29T22:02:24.220Z,2.16
2022-11-29T22:05:11.139Z,2.10
2022-11-29T22:07:58.107Z,2.17
2022-11-29T22:10:45.064Z,2.15
2022-11-29T22:13:32.082Z,2.23
2022-11-29T22:16:18.990Z,2.12
2022-11-29T22:19:05.919Z,2.18
2022-11-29T22:22:00.370Z,2.15
2022-11-29T22:24:47.772Z,2.09
2022-11-29T22:27:34.879Z,2.08
2022-11-29T22:30:21.828Z,2.20
2022-11-29T22:33:13.150Z,2.19
2022-11-29T22:36:18.579Z,1.98
2022-11-29T22:39:06.752Z,2.03
2022-11-29T22:41:54.933Z,1.97
2022-11-29T22:44:42.221Z,1.89
2022-11-29T22:47:29.098Z,1.84
2022-11-29T22:50:16.138Z,1.92
2022-11-29T22:53:02.991Z,1.94
2022-11-29T22:55:49.909Z,1.95
2022-11-29T22:58:37.433Z,2.00
2022-11-29T23:01:29.178Z,1.95
2022-11-29T23:04:16.106Z,1.92
2022-11-29T23:07:03.028Z,1.85
2022-11-29T23:09:49.915Z,1.87
2022-11-29T23:12:36.848Z,1.88
2022-11-29T23:15:23.848Z,1.96
2022-11-29T23:18:11.043Z,2.07
2022-11-29T23:21:25.160Z,2.08
2022-11-29T23:24:12.830Z,2.05
2022-11-29T23:26:59.750Z,1.97
2022-11-29T23:29:46.878Z,1.91
2022-11-29T23:32:33.806Z,1.87
2022-11-29T23:35:20.862Z,2.00
2022-11-29T23:38:07.931Z,1.92
2022-11-29T23:40:55.917Z,1.95
2022-11-29T23:43:43.087Z,2.07
2022-11-29T23:46:30.051Z,2.08
2022-11-29T23:49:16.993Z,2.06
2022-11-29T23:52:04.054Z,2.07
2022-11-29T23:54:50.957Z,2.08
2022-11-29T23:57:37.949Z,2.11
